sensor_id;sensor_type;location;lat;lon;timestamp;P1;durP1;ratioP1;P2;durP2;ratioP2
65597;SDS011;52267;51.984;20.956;2023-04-24T00:01:10;16.10;;;11.20;;
65597;SDS011;52267;51.984;20.956;2023-04-24T00:03:37;14.40;;;10.60;;
65597;SDS011;52267;51.984;20.956;2023-04-24T00:06:05;16.20;;;10.40;;
65597;SDS011;52267;51.984;20.956;2023-04-24T00:08:35;14.90;;;10.30;;
65597;SDS011;52267;51.984;20.956;2023-04-24T00:11:02;16.80;;;10.00;;
65597;SDS011;52267;51.984;20.956;2023-04-24T00:13:30;14.90;;;10.00;;
65597;SDS011;52267;51.984;20.956;2023-04-24T00:15:57;14.40;;;10.10;;
65597;SDS011;52267;51.984;20.956;2023-04-24T00:18:24;16.70;;;10.40;;
65597;SDS011;52267;51.984;20.956;2023-04-24T00:20:51;14.50;;;9.90;;
65597;SDS011;52267;51.984;20.956;2023-04-24T00:23:18;11.10;;;8.30;;
65597;SDS011;52267;51.984;20.956;2023-04-24T00:25:45;13.10;;;9.70;;
65597;SDS011;52267;51.984;20.956;2023-04-24T00:28:12;14.60;;;10.10;;
65597;SDS011;52267;51.984;20.956;2023-04-24T00:30:39;12.30;;;9.40;;
65597;SDS011;52267;51.984;20.956;2023-04-24T00:33:07;14.40;;;9.30;;
65597;SDS011;52267;51.984;20.956;2023-04-24T00:35:34;13.00;;;9.40;;
65597;SDS011;52267;51.984;20.956;2023-04-24T00:38:01;14.40;;;9.30;;
65597;SDS011;52267;51.984;20.956;2023-04-24T00:40:28;15.80;;;9.20;;
65597;SDS011;52267;51.984;20.956;2023-04-24T00:42:55;12.20;;;9.10;;
65597;SDS011;52267;51.984;20.956;2023-04-24T00:45:22;12.90;;;9.70;;
65597;SDS011;52267;51.984;20.956;2023-04-24T00:47:52;13.70;;;10.90;;
65597;SDS011;52267;51.984;20.956;2023-04-24T00:50:20;16.60;;;11.30;;
65597;SDS011;52267;51.984;20.956;2023-04-24T00:52:48;15.40;;;10.30;;
65597;SDS011;52267;51.984;20.956;2023-04-24T00:55:16;17.10;;;10.50;;
65597;SDS011;52267;51.984;20.956;2023-04-24T00:57:44;15.40;;;10.80;;
65597;SDS011;52267;51.984;20.956;2023-04-24T01:00:12;15.00;;;9.90;;
65597;SDS011;52267;51.984;20.956;2023-04-24T01:02:41;14.40;;;9.50;;
65597;SDS011;52267;51.984;20.956;2023-04-24T01:05:14;16.50;;;10.60;;
65597;SDS011;52267;51.984;20.956;2023-04-24T01:07:44;14.00;;;9.80;;
65597;SDS011;52267;51.984;20.956;2023-04-24T01:10:15;13.00;;;9.90;;
65597;SDS011;52267;51.984;20.956;2023-04-24T01:12:46;15.70;;;10.20;;
65597;SDS011;52267;51.984;20.956;2023-04-24T01:15:15;11.80;;;8.30;;
65597;SDS011;52267;51.984;20.956;2023-04-24T01:17:43;13.30;;;9.40;;
65597;SDS011;52267;51.984;20.956;2023-04-24T01:20:13;17.00;;;10.20;;
65597;SDS011;52267;51.984;20.956;2023-04-24T01:22:41;15.50;;;10.80;;
65597;SDS011;52267;51.984;20.956;2023-04-24T01:25:08;15.00;;;10.40;;
65597;SDS011;52267;51.984;20.956;2023-04-24T01:27:36;17.40;;;11.10;;
65597;SDS011;52267;51.984;20.956;2023-04-24T01:30:03;17.40;;;12.10;;
65597;SDS011;52267;51.984;20.956;2023-04-24T01:32:30;16.30;;;11.00;;
65597;SDS011;52267;51.984;20.956;2023-04-24T01:34:57;15.60;;;10.40;;
65597;SDS011;52267;51.984;20.956;2023-04-24T01:37:25;15.00;;;10.70;;
65597;SDS011;52267;51.984;20.956;2023-04-24T01:39:53;20.00;;;11.80;;
65597;SDS011;52267;51.984;20.956;2023-04-24T01:42:21;15.40;;;10.20;;
65597;SDS011;52267;51.984;20.956;2023-04-24T01:44:48;15.90;;;10.10;;
65597;SDS011;52267;51.984;20.956;2023-04-24T01:47:15;19.90;;;12.80;;
65597;SDS011;52267;51.984;20.956;2023-04-24T01:49:42;14.60;;;10.80;;
65597;SDS011;52267;51.984;20.956;2023-04-24T01:52:09;16.90;;;11.40;;
65597;SDS011;52267;51.984;20.956;2023-04-24T01:54:37;13.70;;;10.70;;
65597;SDS011;52267;51.984;20.956;2023-04-24T01:57:04;15.90;;;10.50;;
65597;SDS011;52267;51.984;20.956;2023-04-24T01:59:33;14.40;;;10.40;;
65597;SDS011;52267;51.984;20.956;2023-04-24T02:02:00;16.70;;;12.10;;
65597;SDS011;52267;51.984;20.956;2023-04-24T02:04:27;16.60;;;11.50;;
65597;SDS011;52267;51.984;20.956;2023-04-24T02:06:54;15.40;;;10.40;;
65597;SDS011;52267;51.984;20.956;2023-04-24T02:09:21;16.80;;;11.00;;
65597;SDS011;52267;51.984;20.956;2023-04-24T02:11:48;14.50;;;11.60;;
65597;SDS011;52267;51.984;20.956;2023-04-24T02:14:15;16.10;;;10.40;;
65597;SDS011;52267;51.984;20.956;2023-04-24T02:16:42;18.90;;;11.10;;
65597;SDS011;52267;51.984;20.956;2023-04-24T02:19:10;16.90;;;12.30;;
65597;SDS011;52267;51.984;20.956;2023-04-24T02:21:37;14.20;;;11.00;;
65597;SDS011;52267;51.984;20.956;2023-04-24T02:24:04;19.90;;;11.60;;
65597;SDS011;52267;51.984;20.956;2023-04-24T02:26:31;16.40;;;10.90;;
65597;SDS011;52267;51.984;20.956;2023-04-24T02:28:58;21.10;;;12.90;;
65597;SDS011;52267;51.984;20.956;2023-04-24T02:31:25;15.90;;;12.30;;
65597;SDS011;52267;51.984;20.956;2023-04-24T02:33:52;17.50;;;12.10;;
65597;SDS011;52267;51.984;20.956;2023-04-24T02:36:19;19.80;;;12.30;;
65597;SDS011;52267;51.984;20.956;2023-04-24T02:38:46;15.20;;;10.00;;
65597;SDS011;52267;51.984;20.956;2023-04-24T02:41:13;16.50;;;11.60;;
65597;SDS011;52267;51.984;20.956;2023-04-24T02:43:40;15.40;;;10.90;;
65597;SDS011;52267;51.984;20.956;2023-04-24T02:46:07;20.20;;;12.30;;
65597;SDS011;52267;51.984;20.956;2023-04-24T02:48:34;15.70;;;11.70;;
65597;SDS011;52267;51.984;20.956;2023-04-24T02:51:01;17.30;;;11.80;;
65597;SDS011;52267;51.984;20.956;2023-04-24T02:53:28;16.10;;;10.90;;
65597;SDS011;52267;51.984;20.956;2023-04-24T02:55:57;19.40;;;11.70;;
65597;SDS011;52267;51.984;20.956;2023-04-24T02:58:24;18.30;;;11.00;;
65597;SDS011;52267;51.984;20.956;2023-04-24T03:00:54;16.60;;;11.70;;
65597;SDS011;52267;51.984;20.956;2023-04-24T03:03:22;17.20;;;11.80;;
65597;SDS011;52267;51.984;20.956;2023-04-24T03:05:50;16.30;;;10.70;;
65597;SDS011;52267;51.984;20.956;2023-04-24T03:08:17;17.70;;;12.20;;
65597;SDS011;52267;51.984;20.956;2023-04-24T03:10:44;15.20;;;11.60;;
65597;SDS011;52267;51.984;20.956;2023-04-24T03:13:11;21.00;;;11.60;;
65597;SDS011;52267;51.984;20.956;2023-04-24T03:15:38;16.90;;;11.50;;
65597;SDS011;52267;51.984;20.956;2023-04-24T03:18:06;14.20;;;9.90;;
65597;SDS011;52267;51.984;20.956;2023-04-24T03:20:33;17.00;;;11.00;;
65597;SDS011;52267;51.984;20.956;2023-04-24T03:23:00;17.40;;;11.10;;
65597;SDS011;52267;51.984;20.956;2023-04-24T03:25:27;15.70;;;10.90;;
65597;SDS011;52267;51.984;20.956;2023-04-24T03:27:54;16.90;;;11.30;;
65597;SDS011;52267;51.984;20.956;2023-04-24T03:30:21;19.10;;;12.40;;
65597;SDS011;52267;51.984;20.956;2023-04-24T03:32:48;17.30;;;11.40;;
65597;SDS011;52267;51.984;20.956;2023-04-24T03:35:15;19.50;;;11.50;;
65597;SDS011;52267;51.984;20.956;2023-04-24T03:37:42;17.30;;;12.20;;
65597;SDS011;52267;51.984;20.956;2023-04-24T03:40:09;19.40;;;11.60;;
65597;SDS011;52267;51.984;20.956;2023-04-24T03:42:36;17.30;;;11.50;;
65597;SDS011;52267;51.984;20.956;2023-04-24T03:45:04;16.60;;;10.20;;
65597;SDS011;52267;51.984;20.956;2023-04-24T03:47:32;16.40;;;10.00;;
65597;SDS011;52267;51.984;20.956;2023-04-24T03:49:59;17.10;;;10.50;;
65597;SDS011;52267;51.984;20.956;2023-04-24T03:52:26;14.60;;;8.70;;
65597;SDS011;52267;51.984;20.956;2023-04-24T03:54:53;14.30;;;9.00;;
65597;SDS011;52267;51.984;20.956;2023-04-24T03:57:20;14.20;;;10.40;;
65597;SDS011;52267;51.984;20.956;2023-04-24T03:59:47;15.90;;;10.80;;
65597;SDS011;52267;51.984;20.956;2023-04-24T04:02:14;16.60;;;9.70;;
65597;SDS011;52267;51.984;20.956;2023-04-24T04:04:40;14.10;;;9.10;;
65597;SDS011;52267;51.984;20.956;2023-04-24T04:07:07;9.20;;;6.20;;
65597;SDS011;52267;51.984;20.956;2023-04-24T04:09:35;12.70;;;9.40;;
65597;SDS011;52267;51.984;20.956;2023-04-24T04:12:02;11.60;;;7.60;;
65597;SDS011;52267;51.984;20.956;2023-04-24T04:14:29;13.00;;;8.90;;
65597;SDS011;52267;51.984;20.956;2023-04-24T04:16:56;10.80;;;7.30;;
65597;SDS011;52267;51.984;20.956;2023-04-24T04:19:23;13.20;;;8.00;;
65597;SDS011;52267;51.984;20.956;2023-04-24T04:21:50;13.30;;;8.80;;
65597;SDS011;52267;51.984;20.956;2023-04-24T04:24:19;12.20;;;8.30;;
65597;SDS011;52267;51.984;20.956;2023-04-24T04:26:50;13.00;;;8.80;;
65597;SDS011;52267;51.984;20.956;2023-04-24T04:29:18;13.90;;;9.20;;
65597;SDS011;52267;51.984;20.956;2023-04-24T04:31:45;12.40;;;9.20;;
65597;SDS011;52267;51.984;20.956;2023-04-24T04:34:12;12.90;;;9.40;;
65597;SDS011;52267;51.984;20.956;2023-04-24T04:36:40;12.40;;;8.80;;
65597;SDS011;52267;51.984;20.956;2023-04-24T04:39:08;10.40;;;8.30;;
65597;SDS011;52267;51.984;20.956;2023-04-24T04:41:35;13.70;;;8.80;;
65597;SDS011;52267;51.984;20.956;2023-04-24T04:44:02;15.70;;;10.60;;
65597;SDS011;52267;51.984;20.956;2023-04-24T04:46:31;13.50;;;8.70;;
65597;SDS011;52267;51.984;20.956;2023-04-24T04:49:01;19.10;;;11.50;;
65597;SDS011;52267;51.984;20.956;2023-04-24T04:51:29;12.70;;;9.00;;
65597;SDS011;52267;51.984;20.956;2023-04-24T04:53:56;14.40;;;9.10;;
65597;SDS011;52267;51.984;20.956;2023-04-24T04:56:23;18.40;;;11.00;;
65597;SDS011;52267;51.984;20.956;2023-04-24T04:58:50;14.10;;;9.30;;
65597;SDS011;52267;51.984;20.956;2023-04-24T05:01:18;17.60;;;11.50;;
65597;SDS011;52267;51.984;20.956;2023-04-24T05:03:45;11.80;;;9.10;;
65597;SDS011;52267;51.984;20.956;2023-04-24T05:06:12;15.50;;;10.90;;
65597;SDS011;52267;51.984;20.956;2023-04-24T05:08:39;15.50;;;10.00;;
65597;SDS011;52267;51.984;20.956;2023-04-24T05:11:06;16.20;;;10.50;;
65597;SDS011;52267;51.984;20.956;2023-04-24T05:13:33;14.40;;;9.30;;
65597;SDS011;52267;51.984;20.956;2023-04-24T05:16:00;15.00;;;10.20;;
65597;SDS011;52267;51.984;20.956;2023-04-24T05:18:27;13.30;;;9.50;;
65597;SDS011;52267;51.984;20.956;2023-04-24T05:20:55;15.60;;;10.00;;
65597;SDS011;52267;51.984;20.956;2023-04-24T05:23:22;16.00;;;9.30;;
65597;SDS011;52267;51.984;20.956;2023-04-24T05:25:49;18.80;;;11.90;;
65597;SDS011;52267;51.984;20.956;2023-04-24T05:28:16;17.50;;;11.60;;
65597;SDS011;52267;51.984;20.956;2023-04-24T05:30:43;16.70;;;11.20;;
65597;SDS011;52267;51.984;20.956;2023-04-24T05:33:10;12.90;;;9.60;;
65597;SDS011;52267;51.984;20.956;2023-04-24T05:35:37;16.20;;;11.30;;
65597;SDS011;52267;51.984;20.956;2023-04-24T05:38:04;17.20;;;12.50;;
65597;SDS011;52267;51.984;20.956;2023-04-24T05:40:31;11.80;;;8.20;;
65597;SDS011;52267;51.984;20.956;2023-04-24T05:42:58;13.80;;;10.60;;
65597;SDS011;52267;51.984;20.956;2023-04-24T05:45:25;16.20;;;11.80;;
65597;SDS011;52267;51.984;20.956;2023-04-24T05:47:53;13.30;;;8.10;;
65597;SDS011;52267;51.984;20.956;2023-04-24T05:50:20;15.10;;;9.70;;
65597;SDS011;52267;51.984;20.956;2023-04-24T05:52:47;15.40;;;11.10;;
65597;SDS011;52267;51.984;20.956;2023-04-24T05:55:14;12.50;;;8.50;;
65597;SDS011;52267;51.984;20.956;2023-04-24T05:57:44;15.30;;;9.50;;
65597;SDS011;52267;51.984;20.956;2023-04-24T06:00:12;16.60;;;10.00;;
65597;SDS011;52267;51.984;20.956;2023-04-24T06:02:40;11.60;;;8.50;;
65597;SDS011;52267;51.984;20.956;2023-04-24T06:05:07;12.60;;;8.70;;
65597;SDS011;52267;51.984;20.956;2023-04-24T06:07:35;16.40;;;9.80;;
65597;SDS011;52267;51.984;20.956;2023-04-24T06:10:02;12.60;;;9.80;;
65597;SDS011;52267;51.984;20.956;2023-04-24T06:12:29;14.80;;;9.10;;
65597;SDS011;52267;51.984;20.956;2023-04-24T06:14:57;16.00;;;9.60;;
65597;SDS011;52267;51.984;20.956;2023-04-24T06:17:23;13.60;;;9.50;;
65597;SDS011;52267;51.984;20.956;2023-04-24T06:19:50;14.10;;;9.40;;
65597;SDS011;52267;51.984;20.956;2023-04-24T06:22:17;15.20;;;9.30;;
65597;SDS011;52267;51.984;20.956;2023-04-24T06:24:44;12.70;;;9.00;;
65597;SDS011;52267;51.984;20.956;2023-04-24T06:27:11;13.70;;;10.40;;
65597;SDS011;52267;51.984;20.956;2023-04-24T06:29:38;12.30;;;9.40;;
65597;SDS011;52267;51.984;20.956;2023-04-24T06:32:06;15.40;;;10.00;;
65597;SDS011;52267;51.984;20.956;2023-04-24T06:34:33;16.80;;;9.20;;
65597;SDS011;52267;51.984;20.956;2023-04-24T06:37:03;13.60;;;10.40;;
65597;SDS011;52267;51.984;20.956;2023-04-24T06:39:30;15.30;;;10.10;;
65597;SDS011;52267;51.984;20.956;2023-04-24T06:41:58;12.30;;;9.20;;
65597;SDS011;52267;51.984;20.956;2023-04-24T06:44:25;13.80;;;10.30;;
65597;SDS011;52267;51.984;20.956;2023-04-24T06:46:52;13.70;;;10.00;;
65597;SDS011;52267;51.984;20.956;2023-04-24T06:49:19;17.40;;;10.00;;
65597;SDS011;52267;51.984;20.956;2023-04-24T06:51:46;13.60;;;9.60;;
65597;SDS011;52267;51.984;20.956;2023-04-24T06:54:13;12.40;;;9.50;;
65597;SDS011;52267;51.984;20.956;2023-04-24T06:56:40;15.10;;;9.50;;
65597;SDS011;52267;51.984;20.956;2023-04-24T06:59:07;16.60;;;10.30;;
65597;SDS011;52267;51.984;20.956;2023-04-24T07:01:34;12.50;;;8.60;;
65597;SDS011;52267;51.984;20.956;2023-04-24T07:04:01;14.90;;;9.50;;
65597;SDS011;52267;51.984;20.956;2023-04-24T07:06:28;12.20;;;8.90;;
65597;SDS011;52267;51.984;20.956;2023-04-24T07:08:57;10.60;;;6.30;;
65597;SDS011;52267;51.984;20.956;2023-04-24T07:11:24;10.10;;;7.00;;
65597;SDS011;52267;51.984;20.956;2023-04-24T07:13:51;10.40;;;7.40;;
65597;SDS011;52267;51.984;20.956;2023-04-24T07:16:18;10.90;;;7.90;;
65597;SDS011;52267;51.984;20.956;2023-04-24T07:18:45;12.40;;;7.70;;
65597;SDS011;52267;51.984;20.956;2023-04-24T07:21:11;10.20;;;7.80;;
65597;SDS011;52267;51.984;20.956;2023-04-24T07:23:38;16.60;;;10.60;;
65597;SDS011;52267;51.984;20.956;2023-04-24T07:26:07;12.80;;;10.30;;
65597;SDS011;52267;51.984;20.956;2023-04-24T07:28:34;14.00;;;11.30;;
65597;SDS011;52267;51.984;20.956;2023-04-24T07:31:01;19.20;;;11.00;;
65597;SDS011;52267;51.984;20.956;2023-04-24T07:33:28;15.60;;;11.50;;
65597;SDS011;52267;51.984;20.956;2023-04-24T07:35:59;15.60;;;12.00;;
65597;SDS011;52267;51.984;20.956;2023-04-24T07:38:26;12.80;;;9.80;;
65597;SDS011;52267;51.984;20.956;2023-04-24T07:40:56;12.70;;;9.60;;
65597;SDS011;52267;51.984;20.956;2023-04-24T07:43:23;13.00;;;9.60;;
65597;SDS011;52267;51.984;20.956;2023-04-24T07:45:50;13.10;;;9.30;;
65597;SDS011;52267;51.984;20.956;2023-04-24T07:48:18;11.60;;;9.20;;
65597;SDS011;52267;51.984;20.956;2023-04-24T07:50:45;12.40;;;9.40;;
65597;SDS011;52267;51.984;20.956;2023-04-24T07:53:12;13.40;;;10.50;;
65597;SDS011;52267;51.984;20.956;2023-04-24T07:55:39;13.60;;;9.90;;
65597;SDS011;52267;51.984;20.956;2023-04-24T07:58:06;11.20;;;9.50;;
65597;SDS011;52267;51.984;20.956;2023-04-24T08:00:33;11.90;;;7.60;;
65597;SDS011;52267;51.984;20.956;2023-04-24T08:03:00;14.10;;;10.10;;
65597;SDS011;52267;51.984;20.956;2023-04-24T08:05:27;13.00;;;9.80;;
65597;SDS011;52267;51.984;20.956;2023-04-24T08:07:55;14.50;;;10.40;;
65597;SDS011;52267;51.984;20.956;2023-04-24T08:10:23;12.50;;;8.50;;
65597;SDS011;52267;51.984;20.956;2023-04-24T08:12:50;13.90;;;10.40;;
65597;SDS011;52267;51.984;20.956;2023-04-24T08:15:17;10.90;;;8.10;;
65597;SDS011;52267;51.984;20.956;2023-04-24T08:17:44;13.00;;;10.50;;
65597;SDS011;52267;51.984;20.956;2023-04-24T08:20:12;12.70;;;9.90;;
65597;SDS011;52267;51.984;20.956;2023-04-24T08:22:42;11.10;;;9.10;;
65597;SDS011;52267;51.984;20.956;2023-04-24T08:25:10;14.50;;;10.00;;
65597;SDS011;52267;51.984;20.956;2023-04-24T08:27:37;13.80;;;9.00;;
65597;SDS011;52267;51.984;20.956;2023-04-24T08:30:06;12.60;;;8.80;;
65597;SDS011;52267;51.984;20.956;2023-04-24T08:32:33;9.90;;;7.40;;
65597;SDS011;52267;51.984;20.956;2023-04-24T08:35:01;13.10;;;8.40;;
65597;SDS011;52267;51.984;20.956;2023-04-24T08:37:28;14.40;;;8.60;;
65597;SDS011;52267;51.984;20.956;2023-04-24T08:39:55;12.60;;;9.10;;
65597;SDS011;52267;51.984;20.956;2023-04-24T08:42:22;10.90;;;7.70;;
65597;SDS011;52267;51.984;20.956;2023-04-24T08:44:49;11.90;;;8.50;;
65597;SDS011;52267;51.984;20.956;2023-04-24T08:47:17;10.40;;;7.40;;
65597;SDS011;52267;51.984;20.956;2023-04-24T08:49:47;9.10;;;6.90;;
65597;SDS011;52267;51.984;20.956;2023-04-24T08:52:15;13.70;;;9.60;;
65597;SDS011;52267;51.984;20.956;2023-04-24T08:54:42;12.00;;;7.40;;
65597;SDS011;52267;51.984;20.956;2023-04-24T08:57:13;11.90;;;8.60;;
65597;SDS011;52267;51.984;20.956;2023-04-24T08:59:41;9.90;;;8.30;;
65597;SDS011;52267;51.984;20.956;2023-04-24T09:02:10;10.40;;;7.90;;
65597;SDS011;52267;51.984;20.956;2023-04-24T09:04:38;10.80;;;8.60;;
65597;SDS011;52267;51.984;20.956;2023-04-24T09:07:06;11.00;;;8.80;;
65597;SDS011;52267;51.984;20.956;2023-04-24T09:09:41;10.70;;;8.20;;
65597;SDS011;52267;51.984;20.956;2023-04-24T09:12:08;12.70;;;8.60;;
65597;SDS011;52267;51.984;20.956;2023-04-24T09:14:36;10.80;;;8.60;;
65597;SDS011;52267;51.984;20.956;2023-04-24T09:17:09;9.70;;;7.20;;
65597;SDS011;52267;51.984;20.956;2023-04-24T09:19:36;9.40;;;7.80;;
65597;SDS011;52267;51.984;20.956;2023-04-24T09:22:06;11.30;;;6.80;;
65597;SDS011;52267;51.984;20.956;2023-04-24T09:27:01;9.10;;;7.90;;
65597;SDS011;52267;51.984;20.956;2023-04-24T09:29:29;11.10;;;9.20;;
65597;SDS011;52267;51.984;20.956;2023-04-24T09:31:56;10.60;;;7.60;;
65597;SDS011;52267;51.984;20.956;2023-04-24T09:34:25;13.90;;;7.80;;
65597;SDS011;52267;51.984;20.956;2023-04-24T09:36:54;10.20;;;7.30;;
65597;SDS011;52267;51.984;20.956;2023-04-24T09:39:22;12.40;;;8.00;;
65597;SDS011;52267;51.984;20.956;2023-04-24T09:41:53;12.60;;;7.90;;
65597;SDS011;52267;51.984;20.956;2023-04-24T09:44:27;11.10;;;8.60;;
65597;SDS011;52267;51.984;20.956;2023-04-24T09:46:56;10.80;;;8.10;;
65597;SDS011;52267;51.984;20.956;2023-04-24T09:49:29;12.40;;;9.50;;
65597;SDS011;52267;51.984;20.956;2023-04-24T09:52:10;12.80;;;8.90;;
65597;SDS011;52267;51.984;20.956;2023-04-24T09:54:38;14.90;;;9.10;;
65597;SDS011;52267;51.984;20.956;2023-04-24T09:57:09;9.60;;;7.80;;
65597;SDS011;52267;51.984;20.956;2023-04-24T09:59:42;10.10;;;8.40;;
65597;SDS011;52267;51.984;20.956;2023-04-24T10:02:18;11.10;;;9.10;;
65597;SDS011;52267;51.984;20.956;2023-04-24T10:04:56;13.30;;;8.50;;
65597;SDS011;52267;51.984;20.956;2023-04-24T10:07:26;9.10;;;8.00;;
65597;SDS011;52267;51.984;20.956;2023-04-24T10:09:54;12.80;;;6.90;;
65597;SDS011;52267;51.984;20.956;2023-04-24T10:12:21;10.00;;;7.50;;
65597;SDS011;52267;51.984;20.956;2023-04-24T10:14:49;9.00;;;7.50;;
65597;SDS011;52267;51.984;20.956;2023-04-24T10:17:17;10.30;;;6.40;;
65597;SDS011;52267;51.984;20.956;2023-04-24T10:19:45;8.20;;;6.70;;
65597;SDS011;52267;51.984;20.956;2023-04-24T10:22:13;8.30;;;7.30;;
65597;SDS011;52267;51.984;20.956;2023-04-24T10:24:43;8.50;;;6.90;;
65597;SDS011;52267;51.984;20.956;2023-04-24T10:27:12;13.10;;;7.50;;
65597;SDS011;52267;51.984;20.956;2023-04-24T10:29:43;10.90;;;7.30;;
65597;SDS011;52267;51.984;20.956;2023-04-24T10:32:11;9.00;;;7.00;;
65597;SDS011;52267;51.984;20.956;2023-04-24T10:34:38;8.10;;;6.60;;
65597;SDS011;52267;51.984;20.956;2023-04-24T10:37:05;9.30;;;7.10;;
65597;SDS011;52267;51.984;20.956;2023-04-24T10:39:32;10.70;;;6.70;;
65597;SDS011;52267;51.984;20.956;2023-04-24T10:42:00;8.50;;;7.30;;
65597;SDS011;52267;51.984;20.956;2023-04-24T10:44:36;8.60;;;6.50;;
65597;SDS011;52267;51.984;20.956;2023-04-24T10:47:03;11.20;;;7.40;;
65597;SDS011;52267;51.984;20.956;2023-04-24T10:49:31;10.30;;;8.20;;
65597;SDS011;52267;51.984;20.956;2023-04-24T10:52:04;9.00;;;6.10;;
65597;SDS011;52267;51.984;20.956;2023-04-24T10:54:41;8.70;;;6.00;;
65597;SDS011;52267;51.984;20.956;2023-04-24T11:00:30;9.70;;;7.60;;
65597;SDS011;52267;51.984;20.956;2023-04-24T11:02:57;12.70;;;6.90;;
65597;SDS011;52267;51.984;20.956;2023-04-24T11:05:55;9.30;;;6.80;;
65597;SDS011;52267;51.984;20.956;2023-04-24T11:08:28;12.40;;;7.10;;
65597;SDS011;52267;51.984;20.956;2023-04-24T11:11:13;9.60;;;6.90;;
65597;SDS011;52267;51.984;20.956;2023-04-24T11:16:34;11.40;;;7.60;;
65597;SDS011;52267;51.984;20.956;2023-04-24T11:19:23;11.00;;;8.00;;
65597;SDS011;52267;51.984;20.956;2023-04-24T11:21:57;9.70;;;7.70;;
65597;SDS011;52267;51.984;20.956;2023-04-24T11:26:44;10.30;;;7.40;;
65597;SDS011;52267;51.984;20.956;2023-04-24T11:29:11;8.70;;;6.20;;
65597;SDS011;52267;51.984;20.956;2023-04-24T11:31:40;9.50;;;6.10;;
65597;SDS011;52267;51.984;20.956;2023-04-24T11:34:15;9.20;;;6.50;;
65597;SDS011;52267;51.984;20.956;2023-04-24T11:36:46;6.90;;;5.90;;
65597;SDS011;52267;51.984;20.956;2023-04-24T11:39:16;8.50;;;6.20;;
65597;SDS011;52267;51.984;20.956;2023-04-24T11:41:43;9.00;;;6.40;;
65597;SDS011;52267;51.984;20.956;2023-04-24T11:44:11;6.90;;;5.30;;
65597;SDS011;52267;51.984;20.956;2023-04-24T11:46:38;8.60;;;6.60;;
65597;SDS011;52267;51.984;20.956;2023-04-24T11:49:06;7.50;;;5.70;;
65597;SDS011;52267;51.984;20.956;2023-04-24T11:51:34;10.10;;;7.80;;
65597;SDS011;52267;51.984;20.956;2023-04-24T11:54:01;11.00;;;7.90;;
65597;SDS011;52267;51.984;20.956;2023-04-24T11:56:28;10.70;;;8.20;;
65597;SDS011;52267;51.984;20.956;2023-04-24T11:58:55;10.40;;;7.70;;
65597;SDS011;52267;51.984;20.956;2023-04-24T12:01:22;9.50;;;7.30;;
65597;SDS011;52267;51.984;20.956;2023-04-24T12:03:50;9.30;;;6.50;;
65597;SDS011;52267;51.984;20.956;2023-04-24T12:06:17;16.20;;;6.80;;
65597;SDS011;52267;51.984;20.956;2023-04-24T12:08:46;15.30;;;5.80;;
65597;SDS011;52267;51.984;20.956;2023-04-24T12:11:16;9.20;;;4.90;;
65597;SDS011;52267;51.984;20.956;2023-04-24T12:13:44;9.10;;;4.60;;
65597;SDS011;52267;51.984;20.956;2023-04-24T12:16:12;5.40;;;4.00;;
65597;SDS011;52267;51.984;20.956;2023-04-24T12:18:43;6.60;;;4.30;;
65597;SDS011;52267;51.984;20.956;2023-04-24T12:21:16;5.20;;;3.70;;
65597;SDS011;52267;51.984;20.956;2023-04-24T12:23:47;12.60;;;4.70;;
65597;SDS011;52267;51.984;20.956;2023-04-24T12:26:19;7.60;;;4.50;;
65597;SDS011;52267;51.984;20.956;2023-04-24T12:28:48;5.50;;;3.90;;
65597;SDS011;52267;51.984;20.956;2023-04-24T12:31:17;6.70;;;4.10;;
65597;SDS011;52267;51.984;20.956;2023-04-24T12:33:44;8.30;;;4.20;;
65597;SDS011;52267;51.984;20.956;2023-04-24T12:36:11;7.80;;;4.30;;
65597;SDS011;52267;51.984;20.956;2023-04-24T12:38:39;5.60;;;3.80;;
65597;SDS011;52267;51.984;20.956;2023-04-24T12:41:12;6.90;;;4.20;;
65597;SDS011;52267;51.984;20.956;2023-04-24T12:43:51;5.90;;;4.20;;
65597;SDS011;52267;51.984;20.956;2023-04-24T12:46:19;6.80;;;4.00;;
65597;SDS011;52267;51.984;20.956;2023-04-24T12:48:46;8.10;;;4.60;;
65597;SDS011;52267;51.984;20.956;2023-04-24T12:51:13;6.70;;;4.30;;
65597;SDS011;52267;51.984;20.956;2023-04-24T12:53:40;5.70;;;4.10;;
65597;SDS011;52267;51.984;20.956;2023-04-24T12:56:07;7.10;;;4.50;;
65597;SDS011;52267;51.984;20.956;2023-04-24T12:58:34;6.10;;;3.90;;
65597;SDS011;52267;51.984;20.956;2023-04-24T13:01:04;5.30;;;3.80;;
65597;SDS011;52267;51.984;20.956;2023-04-24T13:03:33;6.00;;;4.50;;
65597;SDS011;52267;51.984;20.956;2023-04-24T13:05:59;6.20;;;4.30;;
65597;SDS011;52267;51.984;20.956;2023-04-24T13:08:26;6.10;;;4.70;;
65597;SDS011;52267;51.984;20.956;2023-04-24T13:10:53;7.30;;;4.50;;
65597;SDS011;52267;51.984;20.956;2023-04-24T13:13:21;6.30;;;4.90;;
65597;SDS011;52267;51.984;20.956;2023-04-24T13:15:48;6.10;;;4.60;;
65597;SDS011;52267;51.984;20.956;2023-04-24T13:18:14;5.80;;;4.30;;
65597;SDS011;52267;51.984;20.956;2023-04-24T13:20:42;8.80;;;4.90;;
65597;SDS011;52267;51.984;20.956;2023-04-24T13:23:10;7.40;;;4.30;;
65597;SDS011;52267;51.984;20.956;2023-04-24T13:25:37;5.60;;;4.50;;
65597;SDS011;52267;51.984;20.956;2023-04-24T13:28:05;8.30;;;4.40;;
65597;SDS011;52267;51.984;20.956;2023-04-24T13:30:32;5.60;;;3.90;;
65597;SDS011;52267;51.984;20.956;2023-04-24T13:32:59;6.80;;;3.80;;
65597;SDS011;52267;51.984;20.956;2023-04-24T13:35:27;9.90;;;5.40;;
65597;SDS011;52267;51.984;20.956;2023-04-24T13:37:54;7.30;;;4.90;;
65597;SDS011;52267;51.984;20.956;2023-04-24T13:40:20;5.00;;;4.10;;
65597;SDS011;52267;51.984;20.956;2023-04-24T13:42:47;5.70;;;4.60;;
65597;SDS011;52267;51.984;20.956;2023-04-24T13:45:15;6.20;;;4.50;;
65597;SDS011;52267;51.984;20.956;2023-04-24T13:47:42;7.40;;;4.80;;
65597;SDS011;52267;51.984;20.956;2023-04-24T13:50:09;7.30;;;5.00;;
65597;SDS011;52267;51.984;20.956;2023-04-24T13:52:36;5.70;;;4.50;;
65597;SDS011;52267;51.984;20.956;2023-04-24T13:55:06;8.00;;;5.10;;
65597;SDS011;52267;51.984;20.956;2023-04-24T13:57:33;7.60;;;4.50;;
65597;SDS011;52267;51.984;20.956;2023-04-24T14:00:01;6.50;;;4.60;;
65597;SDS011;52267;51.984;20.956;2023-04-24T14:02:30;6.30;;;4.70;;
65597;SDS011;52267;51.984;20.956;2023-04-24T14:04:57;6.50;;;4.40;;
65597;SDS011;52267;51.984;20.956;2023-04-24T14:07:24;5.40;;;4.40;;
65597;SDS011;52267;51.984;20.956;2023-04-24T14:09:51;5.40;;;4.40;;
65597;SDS011;52267;51.984;20.956;2023-04-24T14:12:18;6.40;;;4.70;;
65597;SDS011;52267;51.984;20.956;2023-04-24T14:14:46;5.50;;;4.50;;
65597;SDS011;52267;51.984;20.956;2023-04-24T14:17:14;6.30;;;4.30;;
65597;SDS011;52267;51.984;20.956;2023-04-24T14:19:41;6.60;;;4.20;;
65597;SDS011;52267;51.984;20.956;2023-04-24T14:22:09;7.70;;;4.40;;
65597;SDS011;52267;51.984;20.956;2023-04-24T14:24:37;6.00;;;4.10;;
65597;SDS011;52267;51.984;20.956;2023-04-24T14:27:04;5.50;;;3.90;;
65597;SDS011;52267;51.984;20.956;2023-04-24T14:29:31;6.90;;;4.50;;
65597;SDS011;52267;51.984;20.956;2023-04-24T14:31:58;5.60;;;4.00;;
65597;SDS011;52267;51.984;20.956;2023-04-24T14:34:25;4.40;;;3.60;;
65597;SDS011;52267;51.984;20.956;2023-04-24T14:36:52;5.40;;;4.00;;